createdAt,value
2023-05-21T00:00:25.221Z,23.54
2023-05-21T00:01:25.246Z,23.54
2023-05-21T00:02:25.324Z,23.54
2023-05-21T00:03:25.428Z,23.54
2023-05-21T00:04:25.358Z,23.53
2023-05-21T00:05:25.368Z,23.53
2023-05-21T00:06:25.413Z,23.54
2023-05-21T00:07:25.443Z,23.54
2023-05-21T00:08:25.460Z,23.54
2023-05-21T00:09:25.495Z,23.54
2023-05-21T00:10:25.525Z,23.53
2023-05-21T00:11:25.580Z,23.53
2023-05-21T00:12:25.604Z,23.53
2023-05-21T00:13:25.641Z,23.53
2023-05-21T00:14:25.678Z,23.53
2023-05-21T00:15:25.726Z,23.53
2023-05-21T00:16:25.834Z,23.52
2023-05-21T00:17:25.819Z,23.53
2023-05-21T00:18:25.822Z,23.52
2023-05-21T00:19:25.933Z,23.53
2023-05-21T00:20:25.876Z,23.52
2023-05-21T00:21:25.913Z,23.52
2023-05-21T00:22:25.957Z,23.52
2023-05-21T00:23:25.974Z,23.52
2023-05-21T00:24:26.007Z,23.52
2023-05-21T00:25:26.041Z,23.52
2023-05-21T00:26:26.071Z,23.52
2023-05-21T00:27:26.100Z,23.51
2023-05-21T00:28:26.117Z,23.51
2023-05-21T00:29:26.153Z,23.51
2023-05-21T00:30:26.185Z,23.51
2023-05-21T00:31:26.231Z,23.51
2023-05-21T00:32:26.291Z,23.51
2023-05-21T00:33:26.261Z,23.51
2023-05-21T00:34:26.290Z,23.51
2023-05-21T00:35:26.319Z,23.51
2023-05-21T00:36:26.356Z,23.51
2023-05-21T00:37:26.372Z,23.51
2023-05-21T00:38:26.422Z,23.50
2023-05-21T00:39:26.441Z,23.50
2023-05-21T00:40:26.493Z,23.50
2023-05-21T00:41:26.514Z,23.50
2023-05-21T00:42:26.549Z,23.49
2023-05-21T00:43:26.560Z,23.50
2023-05-21T00:44:26.598Z,23.50
2023-05-21T00:45:26.657Z,23.50
2023-05-21T00:46:26.768Z,23.49
2023-05-21T00:47:26.735Z,23.49
2023-05-21T00:48:26.727Z,23.50
2023-05-21T00:49:26.782Z,23.50
2023-05-21T00:50:26.805Z,23.49
2023-05-21T00:51:26.834Z,23.49
2023-05-21T00:52:26.977Z,23.49
2023-05-21T00:53:26.906Z,23.49
2023-05-21T00:54:26.948Z,23.49
2023-05-21T00:55:26.957Z,23.49
2023-05-21T00:56:26.984Z,23.48
2023-05-21T00:57:27.062Z,23.48
2023-05-21T00:58:27.039Z,23.49
2023-05-21T00:59:27.067Z,23.49
2023-05-21T01:00:27.111Z,23.49
2023-05-21T01:01:27.226Z,23.48
2023-05-21T01:02:27.212Z,23.47
2023-05-21T01:03:27.289Z,23.48
2023-05-21T01:04:27.221Z,23.48
2023-05-21T01:05:27.266Z,23.48
2023-05-21T01:06:27.283Z,23.48
2023-05-21T01:07:27.321Z,23.47
2023-05-21T01:08:27.332Z,23.47
2023-05-21T01:09:27.391Z,23.47
2023-05-21T01:10:27.403Z,23.48
2023-05-21T01:11:27.451Z,23.47
2023-05-21T01:12:27.492Z,23.47
2023-05-21T01:13:27.507Z,23.48
2023-05-21T01:14:27.552Z,23.47
2023-05-21T01:15:27.597Z,23.47
2023-05-21T01:16:27.602Z,23.47
2023-05-21T01:17:27.658Z,23.46
2023-05-21T01:18:27.709Z,23.46
2023-05-21T01:19:27.698Z,23.46
2023-05-21T01:20:27.748Z,23.46
2023-05-21T01:21:27.762Z,23.47
2023-05-21T01:22:27.791Z,23.46
2023-05-21T01:23:27.822Z,23.46
2023-05-21T01:24:27.871Z,23.46
2023-05-21T01:25:27.902Z,23.46
2023-05-21T01:26:27.927Z,23.45
2023-05-21T01:27:27.972Z,23.46
2023-05-21T01:28:28.011Z,23.46
2023-05-21T01:29:28.035Z,23.45
2023-05-21T01:30:28.090Z,23.46
2023-05-21T01:31:28.123Z,23.45
2023-05-21T01:32:28.150Z,23.45
2023-05-21T01:33:28.261Z,23.45
2023-05-21T01:34:28.206Z,23.45
2023-05-21T01:35:28.237Z,23.45
2023-05-21T01:36:28.282Z,23.45
2023-05-21T01:37:28.303Z,23.45
2023-05-21T01:38:28.347Z,23.44
2023-05-21T01:39:28.369Z,23.44
2023-05-21T01:40:28.471Z,23.44
2023-05-21T01:41:28.445Z,23.45
2023-05-21T01:42:28.472Z,23.44
2023-05-21T01:43:28.512Z,23.44
2023-05-21T01:44:28.561Z,23.44
2023-05-21T01:45:28.593Z,23.45
2023-05-21T01:46:28.679Z,23.44
2023-05-21T01:47:28.696Z,23.44
2023-05-21T01:48:28.712Z,23.44
2023-05-21T01:49:28.732Z,23.44
2023-05-21T01:50:28.786Z,23.44
2023-05-21T01:51:28.814Z,23.43
2023-05-21T01:52:28.854Z,23.43
2023-05-21T01:53:28.925Z,23.44
2023-05-21T01:54:28.927Z,23.43
2023-05-21T01:55:28.975Z,23.43
2023-05-21T01:56:28.978Z,23.42
2023-05-21T01:57:29.035Z,23.43
2023-05-21T01:58:29.068Z,23.42
2023-05-21T01:59:29.093Z,23.42
2023-05-21T02:00:29.151Z,23.43
2023-05-21T02:01:29.222Z,23.42
2023-05-21T02:02:29.316Z,23.43
2023-05-21T02:03:29.332Z,23.43
2023-05-21T02:04:29.281Z,23.42
2023-05-21T02:05:29.320Z,23.42
2023-05-21T02:06:29.373Z,23.42
2023-05-21T02:07:29.399Z,23.42
2023-05-21T02:08:29.437Z,23.41
2023-05-21T02:09:29.522Z,23.41
2023-05-21T02:10:29.522Z,23.41
2023-05-21T02:11:29.558Z,23.42
2023-05-21T02:12:29.643Z,23.41
2023-05-21T02:13:29.652Z,23.41
2023-05-21T02:14:29.698Z,23.41
2023-05-21T02:15:29.735Z,23.41
2023-05-21T02:16:29.806Z,23.42
2023-05-21T02:17:29.819Z,23.41
2023-05-21T02:18:29.853Z,23.41
2023-05-21T02:19:29.970Z,23.41
2023-05-21T02:20:29.966Z,23.40
2023-05-21T02:21:30.034Z,23.40
2023-05-21T02:22:30.040Z,23.41
2023-05-21T02:23:30.051Z,23.40
2023-05-21T02:24:30.078Z,23.40
2023-05-21T02:25:30.108Z,23.40
2023-05-21T02:26:30.161Z,23.40
2023-05-21T02:27:30.206Z,23.40
2023-05-21T02:28:30.240Z,23.40
2023-05-21T02:29:30.287Z,23.40
2023-05-21T02:30:30.339Z,23.40
2023-05-21T02:31:30.378Z,23.40
2023-05-21T02:32:30.431Z,23.40
2023-05-21T02:33:30.433Z,23.39
2023-05-21T02:34:30.531Z,23.39
2023-05-21T02:35:30.513Z,23.40
2023-05-21T02:36:30.553Z,23.39
2023-05-21T02:37:30.596Z,23.38
2023-05-21T02:38:30.650Z,23.39
2023-05-21T02:39:30.702Z,23.39
2023-05-21T02:40:30.731Z,23.38
2023-05-21T02:41:30.756Z,23.39
2023-05-21T02:42:30.813Z,23.38
2023-05-21T02:43:30.850Z,23.39
2023-05-21T02:44:30.888Z,23.39
2023-05-21T02:45:31.036Z,23.39
2023-05-21T02:46:30.971Z,23.39
2023-05-21T02:47:31.029Z,23.38
2023-05-21T02:48:31.045Z,23.38
2023-05-21T02:49:31.072Z,23.38
2023-05-21T02:50:31.109Z,23.38
2023-05-21T02:51:31.146Z,23.38
2023-05-21T02:52:31.176Z,23.37
2023-05-21T02:53:31.233Z,23.37
2023-05-21T02:54:31.269Z,23.37
2023-05-21T02:55:31.301Z,23.37
2023-05-21T02:56:31.340Z,23.37
2023-05-21T02:57:31.394Z,23.36
2023-05-21T02:58:31.423Z,23.37
2023-05-21T02:59:31.480Z,23.37
2023-05-21T03:00:31.515Z,23.37
2023-05-21T03:01:31.645Z,23.37
2023-05-21T03:02:31.665Z,23.36
2023-05-21T03:03:31.813Z,23.37
2023-05-21T03:04:31.693Z,23.36
2023-05-21T03:05:31.750Z,23.36
2023-05-21T03:06:31.773Z,23.36
2023-05-21T03:07:31.818Z,23.37
2023-05-21T03:08:31.925Z,23.36
2023-05-21T03:09:31.925Z,23.36
2023-05-21T03:10:31.950Z,23.36
2023-05-21T03:11:31.995Z,23.36
2023-05-21T03:12:32.049Z,23.36
2023-05-21T03:13:32.132Z,23.36
2023-05-21T03:14:32.169Z,23.36
2023-05-21T03:15:32.171Z,23.35
2023-05-21T03:16:32.253Z,23.36
2023-05-21T03:17:32.337Z,23.35
2023-05-21T03:18:32.325Z,23.35
2023-05-21T03:19:32.380Z,23.35
2023-05-21T03:20:32.404Z,23.35
2023-05-21T03:21:32.452Z,23.35
2023-05-21T03:22:32.510Z,23.34
2023-05-21T03:23:32.535Z,23.35
2023-05-21T03:24:32.577Z,23.34
2023-05-21T03:25:32.615Z,23.34
2023-05-21T03:26:32.662Z,23.34
2023-05-21T03:27:32.712Z,23.34
2023-05-21T03:28:32.769Z,23.34
2023-05-21T03:29:32.805Z,23.34
2023-05-21T03:30:32.844Z,23.34
2023-05-21T03:31:32.920Z,23.34
2023-05-21T03:32:32.963Z,23.33
2023-05-21T03:33:32.997Z,23.34
2023-05-21T03:34:33.020Z,23.33
2023-05-21T03:35:33.067Z,23.33
2023-05-21T03:36:33.106Z,23.33
2023-05-21T03:37:33.154Z,23.33
2023-05-21T03:38:33.764Z,23.33
2023-05-21T03:39:33.250Z,23.34
2023-05-21T03:40:33.290Z,23.33
2023-05-21T03:41:33.327Z,23.33
2023-05-21T03:42:33.376Z,23.32
2023-05-21T03:43:33.449Z,23.33
2023-05-21T03:44:33.467Z,23.32
2023-05-21T03:45:33.648Z,23.33
2023-05-21T03:46:33.687Z,23.32
2023-05-21T03:47:33.664Z,23.32
2023-05-21T03:48:33.662Z,23.32
2023-05-21T03:49:33.712Z,23.32
2023-05-21T03:50:33.754Z,23.33
2023-05-21T03:51:33.825Z,23.32
2023-05-21T03:52:33.859Z,23.33
2023-05-21T03:53:33.911Z,23.32
2023-05-21T03:54:33.944Z,23.32
2023-05-21T03:55:34.144Z,23.31
2023-05-21T03:56:34.058Z,23.32
2023-05-21T03:57:34.095Z,23.32
2023-05-21T03:58:34.126Z,23.32
2023-05-21T03:59:34.207Z,23.33
2023-05-21T04:00:34.224Z,23.32
2023-05-21T04:01:34.277Z,23.32
2023-05-21T04:02:34.323Z,23.32
2023-05-21T04:03:34.457Z,23.32
2023-05-21T04:04:34.450Z,23.32
2023-05-21T04:05:34.546Z,23.32
2023-05-21T04:06:34.486Z,23.32
2023-05-21T04:07:34.545Z,23.32
2023-05-21T04:08:34.579Z,23.32
2023-05-21T04:09:36.523Z,23.32
2023-05-21T04:10:34.667Z,23.32
2023-05-21T04:11:34.721Z,23.31
2023-05-21T04:12:34.764Z,23.32
2023-05-21T04:13:34.818Z,23.32
2023-05-21T04:14:34.869Z,23.32
2023-05-21T04:15:35.086Z,23.31
2023-05-21T04:16:35.102Z,23.32
2023-05-21T04:17:35.032Z,23.32
2023-05-21T04:18:35.051Z,23.32
2023-05-21T04:19:35.309Z,23.32
2023-05-21T04:20:35.169Z,23.32
2023-05-21T04:21:35.185Z,23.32
2023-05-21T04:22:35.303Z,23.31
2023-05-21T04:23:35.302Z,23.31
2023-05-21T04:24:35.333Z,23.32
2023-05-21T04:25:35.616Z,23.31
2023-05-21T04:26:35.450Z,23.31
2023-05-21T04:27:35.483Z,23.31
2023-05-21T04:28:35.608Z,23.31
2023-05-21T04:29:35.591Z,23.32
2023-05-21T04:30:35.654Z,23.32
2023-05-21T04:31:35.704Z,23.31
2023-05-21T04:32:35.729Z,23.31
2023-05-21T04:33:35.793Z,23.31
2023-05-21T04:34:35.814Z,23.32
2023-05-21T04:35:36.145Z,23.31
2023-05-21T04:36:35.936Z,23.32
2023-05-21T04:37:35.974Z,23.32
2023-05-21T04:38:36.014Z,23.31
2023-05-21T04:39:36.070Z,23.32
2023-05-21T04:40:36.692Z,23.32
2023-05-21T04:41:36.154Z,23.33
2023-05-21T04:42:36.220Z,23.33
2023-05-21T04:43:36.264Z,23.32
2023-05-21T04:44:36.300Z,23.33
2023-05-21T04:45:36.482Z,23.32
2023-05-21T04:46:36.444Z,23.34
2023-05-21T04:47:36.482Z,23.33
2023-05-21T04:48:36.495Z,23.33
2023-05-21T04:49:36.543Z,23.34
2023-05-21T04:50:36.600Z,23.33
2023-05-21T04:51:36.665Z,23.34
2023-05-21T04:52:36.682Z,23.34
2023-05-21T04:53:36.772Z,23.35
2023-05-21T04:54:36.786Z,23.35
2023-05-21T04:55:37.091Z,23.35
2023-05-21T04:56:36.874Z,23.35
2023-05-21T04:57:36.927Z,23.36
2023-05-21T04:58:36.970Z,23.37
2023-05-21T04:59:37.018Z,23.37
2023-05-21T05:00:37.128Z,23.38
2023-05-21T05:01:37.114Z,23.39
2023-05-21T05:02:37.167Z,23.40
2023-05-21T05:03:37.213Z,23.41
2023-05-21T05:04:37.214Z,23.42
2023-05-21T05:05:37.346Z,23.42
2023-05-21T05:06:37.282Z,23.43
2023-05-21T05:07:37.323Z,23.44
2023-05-21T05:08:37.365Z,23.45
2023-05-21T05:09:37.419Z,23.46
2023-05-21T05:10:37.421Z,23.47
2023-05-21T05:11:37.468Z,23.48
2023-05-21T05:12:37.488Z,23.50
2023-05-21T05:13:37.540Z,23.51
2023-05-21T05:14:37.551Z,23.52
2023-05-21T05:15:38.005Z,23.53
2023-05-21T05:16:37.718Z,23.56
2023-05-21T05:17:37.761Z,23.56
2023-05-21T05:18:37.699Z,23.58
2023-05-21T05:19:37.724Z,23.59
2023-05-21T05:20:37.759Z,23.61
2023-05-21T05:21:37.791Z,23.62
2023-05-21T05:22:37.820Z,23.63
2023-05-21T05:23:37.809Z,23.64
2023-05-21T05:24:37.846Z,23.65
2023-05-21T05:25:37.986Z,23.66
2023-05-21T05:26:37.872Z,23.68
2023-05-21T05:27:38.589Z,23.69
2023-05-21T05:28:37.893Z,23.70
2023-05-21T05:29:37.922Z,23.72
2023-05-21T05:30:38.015Z,23.73
2023-05-21T05:31:37.957Z,23.74
2023-05-21T05:32:38.104Z,23.76
2023-05-21T05:33:37.977Z,23.76
2023-05-21T05:34:38.000Z,23.78
2023-05-21T05:35:38.233Z,23.79
2023-05-21T05:36:38.001Z,23.79
2023-05-21T05:37:38.045Z,23.80
2023-05-21T05:38:38.043Z,23.82
2023-05-21T05:39:38.058Z,23.82
2023-05-21T05:40:38.056Z,23.84
2023-05-21T05:41:38.072Z,23.84
2023-05-21T05:42:38.100Z,23.85
2023-05-21T05:43:38.081Z,23.85
2023-05-21T05:44:38.086Z,23.87
2023-05-21T05:45:38.433Z,23.87
2023-05-21T05:46:38.257Z,23.88
2023-05-21T05:47:38.125Z,23.90
2023-05-21T05:48:38.104Z,23.91
2023-05-21T05:49:38.108Z,23.92
2023-05-21T05:50:38.135Z,23.93
2023-05-21T05:51:38.111Z,23.94
2023-05-21T05:52:38.112Z,23.95
2023-05-21T05:53:38.116Z,23.97
2023-05-21T05:54:38.116Z,23.97
2023-05-21T05:55:38.483Z,23.97
2023-05-21T05:56:38.133Z,24.00
2023-05-21T05:57:38.098Z,24.01
2023-05-21T05:58:38.108Z,24.01
2023-05-21T05:59:38.084Z,24.03
2023-05-21T06:00:38.079Z,24.04
2023-05-21T06:01:38.088Z,24.05
2023-05-21T06:02:38.159Z,24.05
2023-05-21T06:03:38.184Z,24.06
2023-05-21T06:04:38.069Z,24.07
2023-05-21T06:05:38.260Z,24.07
2023-05-21T06:06:38.049Z,24.07
2023-05-21T06:07:38.059Z,24.08
2023-05-21T06:08:38.371Z,24.08
2023-05-21T06:09:38.067Z,24.08
2023-05-21T06:10:38.063Z,24.09
2023-05-21T06:11:38.062Z,24.09
2023-05-21T06:12:38.081Z,24.09
2023-05-21T06:13:38.075Z,24.09
2023-05-21T06:14:38.117Z,24.10
2023-05-21T06:15:38.400Z,24.11
2023-05-21T06:16:38.208Z,24.11
2023-05-21T06:17:38.217Z,24.11
2023-05-21T06:18:38.212Z,24.11
2023-05-21T06:19:38.238Z,24.11
2023-05-21T06:20:38.290Z,24.11
2023-05-21T06:21:38.291Z,24.11
2023-05-21T06:22:38.322Z,24.11
2023-05-21T06:23:38.357Z,24.12
2023-05-21T06:24:38.400Z,24.12
2023-05-21T06:25:38.689Z,24.13
2023-05-21T06:26:38.473Z,24.14
2023-05-21T06:27:38.509Z,24.14
2023-05-21T06:28:38.517Z,24.15
2023-05-21T06:29:38.556Z,24.16
2023-05-21T06:30:38.608Z,24.17
2023-05-21T06:31:38.658Z,24.17
2023-05-21T06:32:38.810Z,24.17
2023-05-21T06:33:38.843Z,24.18
2023-05-21T06:34:38.784Z,24.18
2023-05-21T06:35:38.917Z,24.18
2023-05-21T06:36:38.833Z,24.19
2023-05-21T06:37:38.870Z,24.20
2023-05-21T06:38:38.914Z,24.20
2023-05-21T06:39:38.966Z,24.21
2023-05-21T06:40:39.033Z,24.22
2023-05-21T06:41:39.050Z,24.23
2023-05-21T06:42:39.063Z,24.24
2023-05-21T06:43:39.102Z,24.25
2023-05-21T06:44:39.151Z,24.24
2023-05-21T06:45:39.454Z,24.24
2023-05-21T06:46:39.173Z,24.25
2023-05-21T06:47:39.268Z,24.25
2023-05-21T06:48:39.225Z,24.26
2023-05-21T06:49:39.242Z,24.28
2023-05-21T06:50:39.324Z,24.28
2023-05-21T06:51:39.283Z,24.29
2023-05-21T06:52:39.294Z,24.29
2023-05-21T06:53:39.284Z,24.30
2023-05-21T06:54:39.305Z,24.30
2023-05-21T06:55:39.387Z,24.30
2023-05-21T06:56:39.355Z,24.31
2023-05-21T06:57:39.414Z,24.30
2023-05-21T06:58:39.412Z,24.31
2023-05-21T06:59:39.421Z,24.31
2023-05-21T07:00:39.434Z,24.31
2023-05-21T07:01:39.546Z,24.31
2023-05-21T07:02:39.535Z,24.30
2023-05-21T07:03:39.544Z,24.30
2023-05-21T07:04:39.506Z,24.30
2023-05-21T07:05:39.891Z,24.31
2023-05-21T07:06:39.529Z,24.30
2023-05-21T07:07:39.552Z,24.31
2023-05-21T07:08:39.575Z,24.30
2023-05-21T07:09:39.575Z,24.30
2023-05-21T07:10:39.585Z,24.31
2023-05-21T07:11:39.617Z,24.31
2023-05-21T07:12:39.639Z,24.31
2023-05-21T07:13:39.646Z,24.31
2023-05-21T07:14:39.669Z,24.32
2023-05-21T07:15:39.687Z,24.32
2023-05-21T07:16:39.781Z,24.33
2023-05-21T07:17:39.726Z,24.33
2023-05-21T07:18:39.705Z,24.32
2023-05-21T07:19:39.727Z,24.32
2023-05-21T07:20:39.774Z,24.31
2023-05-21T07:21:39.780Z,24.32
2023-05-21T07:22:39.790Z,24.33
2023-05-21T07:23:39.808Z,24.33
2023-05-21T07:24:39.808Z,24.33
2023-05-21T07:25:39.834Z,24.33
2023-05-21T07:26:39.865Z,24.34
2023-05-21T07:27:39.864Z,24.35
2023-05-21T07:28:39.897Z,24.34
2023-05-21T07:29:39.919Z,24.35
2023-05-21T07:30:39.985Z,24.35
2023-05-21T07:31:40.128Z,24.35
2023-05-21T07:32:39.993Z,24.35
2023-05-21T07:33:40.002Z,24.36
2023-05-21T07:34:40.019Z,24.36
2023-05-21T07:35:40.056Z,24.37
2023-05-21T07:36:40.058Z,24.37
2023-05-21T07:37:40.126Z,24.38
2023-05-21T07:38:40.094Z,24.37
2023-05-21T07:39:40.119Z,24.39
2023-05-21T07:40:40.156Z,24.38
2023-05-21T07:41:40.202Z,24.39
2023-05-21T07:42:40.210Z,24.39
2023-05-21T07:43:40.245Z,24.38
2023-05-21T07:44:40.299Z,24.40
2023-05-21T07:45:40.326Z,24.40
2023-05-21T07:46:40.508Z,24.40
2023-05-21T07:47:40.467Z,24.41
2023-05-21T07:48:40.461Z,24.41
2023-05-21T07:49:40.513Z,24.41
2023-05-21T07:50:40.566Z,24.42
2023-05-21T07:51:40.611Z,24.42
2023-05-21T07:52:40.674Z,24.43
2023-05-21T07:53:40.706Z,24.44
2023-05-21T07:54:40.717Z,24.44
2023-05-21T07:55:40.775Z,24.45
2023-05-21T07:56:40.835Z,24.45
2023-05-21T07:57:40.886Z,24.46
2023-05-21T07:58:40.954Z,24.46
2023-05-21T07:59:40.994Z,24.47
2023-05-21T08:00:41.059Z,24.48
2023-05-21T08:01:41.142Z,24.48
2023-05-21T08:02:41.311Z,24.49
2023-05-21T08:03:41.358Z,24.51
2023-05-21T08:04:41.574Z,24.52
2023-05-21T08:05:41.390Z,24.53
2023-05-21T08:06:41.445Z,24.54
2023-05-21T08:07:41.493Z,24.55
2023-05-21T08:08:41.551Z,24.55
2023-05-21T08:09:41.643Z,24.56
2023-05-21T08:10:41.699Z,24.56
2023-05-21T08:11:41.747Z,24.57
2023-05-21T08:12:41.800Z,24.58
2023-05-21T08:13:41.850Z,24.58
2023-05-21T08:14:41.903Z,24.59
2023-05-21T08:15:41.984Z,24.60
2023-05-21T08:16:42.184Z,24.60
2023-05-21T08:17:42.154Z,24.61
2023-05-21T08:18:42.166Z,24.61
2023-05-21T08:19:42.210Z,24.61
2023-05-21T08:20:42.255Z,24.60
2023-05-21T08:21:42.306Z,24.60
2023-05-21T08:22:42.386Z,24.61
2023-05-21T08:23:42.427Z,24.61
2023-05-21T08:24:42.489Z,24.60
2023-05-21T08:25:42.559Z,24.61
2023-05-21T08:26:42.634Z,24.61
2023-05-21T08:27:42.700Z,24.61
2023-05-21T08:28:42.735Z,24.61
2023-05-21T08:29:42.812Z,24.61
2023-05-21T08:30:42.860Z,24.61
2023-05-21T08:31:42.951Z,24.61
2023-05-21T08:32:43.110Z,24.61
2023-05-21T08:33:43.050Z,24.61
2023-05-21T08:34:43.122Z,24.61
2023-05-21T08:35:43.158Z,24.61
2023-05-21T08:36:43.280Z,24.62
2023-05-21T08:37:43.301Z,24.61
2023-05-21T08:38:43.343Z,24.61
2023-05-21T08:39:43.419Z,24.62
2023-05-21T08:40:43.487Z,24.61
2023-05-21T08:41:43.540Z,24.61
2023-05-21T08:42:43.604Z,24.61
2023-05-21T08:43:43.660Z,24.60
2023-05-21T08:44:43.722Z,24.61
2023-05-21T08:45:43.765Z,24.61
2023-05-21T08:46:43.836Z,24.61
2023-05-21T08:47:43.909Z,24.61
2023-05-21T08:48:43.934Z,24.61
2023-05-21T08:49:44.000Z,24.61
2023-05-21T08:50:44.079Z,24.61
2023-05-21T08:51:44.147Z,24.61
2023-05-21T08:52:44.291Z,24.61
2023-05-21T08:53:44.277Z,24.61
2023-05-21T08:54:44.312Z,24.61
2023-05-21T08:55:44.363Z,24.61
2023-05-21T08:56:44.424Z,24.61
2023-05-21T08:57:44.516Z,24.61
2023-05-21T08:58:44.560Z,24.61
2023-05-21T08:59:44.635Z,24.61
2023-05-21T09:00:44.680Z,24.61
2023-05-21T09:01:44.765Z,24.61
2023-05-21T09:02:44.867Z,24.61
2023-05-21T09:03:44.915Z,24.61
2023-05-21T09:04:45.017Z,24.61
2023-05-21T09:05:45.008Z,24.61
2023-05-21T09:06:45.032Z,24.61
2023-05-21T09:07:45.105Z,24.61
2023-05-21T09:08:45.152Z,24.61
2023-05-21T09:09:45.206Z,24.61
2023-05-21T09:10:45.297Z,24.62
2023-05-21T09:11:45.337Z,24.61
2023-05-21T09:12:45.380Z,24.62
2023-05-21T09:13:45.421Z,24.62
2023-05-21T09:14:45.498Z,24.61
2023-05-21T09:15:45.547Z,24.60
2023-05-21T09:16:45.621Z,24.61
2023-05-21T09:17:45.750Z,24.60
2023-05-21T09:18:45.742Z,24.61
2023-05-21T09:19:45.754Z,24.61
2023-05-21T09:20:45.827Z,24.61
2023-05-21T09:21:45.886Z,24.61
2023-05-21T09:22:45.939Z,24.60
2023-05-21T09:23:46.001Z,24.61
2023-05-21T09:24:46.054Z,24.61
2023-05-21T09:25:46.128Z,24.61
2023-05-21T09:26:46.155Z,24.61
2023-05-21T09:27:46.236Z,24.60
2023-05-21T09:28:46.288Z,24.61
2023-05-21T09:29:46.346Z,24.60
2023-05-21T09:30:46.411Z,24.60
2023-05-21T09:31:46.722Z,24.60
2023-05-21T09:32:46.560Z,24.60
2023-05-21T09:33:46.569Z,24.60
2023-05-21T09:34:46.630Z,24.60
2023-05-21T09:35:46.670Z,24.60
2023-05-21T09:36:46.744Z,24.61
2023-05-21T09:37:46.778Z,24.60
2023-05-21T09:38:46.841Z,24.60
2023-05-21T09:39:46.910Z,24.60
2023-05-21T09:40:46.965Z,24.60
2023-05-21T09:41:47.029Z,24.60
2023-05-21T09:42:47.060Z,24.60
2023-05-21T09:43:47.118Z,24.61
2023-05-21T09:44:47.184Z,24.61
2023-05-21T09:45:47.206Z,24.60
2023-05-21T09:46:47.350Z,24.60
2023-05-21T09:47:47.394Z,24.60
2023-05-21T09:48:47.385Z,24.60
2023-05-21T09:49:47.530Z,24.60
2023-05-21T09:50:47.500Z,24.60
2023-05-21T09:51:47.571Z,24.60
2023-05-21T09:52:47.623Z,24.59
2023-05-21T09:53:47.674Z,24.60
2023-05-21T09:54:47.737Z,24.60
2023-05-21T09:55:47.815Z,24.59
2023-05-21T09:56:47.879Z,24.60
2023-05-21T09:57:49.869Z,24.60
2023-05-21T09:58:47.917Z,24.60
2023-05-21T09:59:47.912Z,24.60
2023-05-21T10:00:47.913Z,24.60
2023-05-21T10:01:47.920Z,24.60
2023-05-21T10:02:47.991Z,24.59
2023-05-21T10:03:50.022Z,24.60
2023-05-21T10:04:47.947Z,24.60
2023-05-21T10:05:47.865Z,24.60
2023-05-21T10:06:47.853Z,24.60
2023-05-21T10:07:47.841Z,24.60
2023-05-21T10:08:47.846Z,24.60
2023-05-21T10:09:47.851Z,24.60
2023-05-21T10:10:47.839Z,24.60
2023-05-21T10:11:47.851Z,24.61
2023-05-21T10:12:47.805Z,24.61
2023-05-21T10:13:47.815Z,24.60
2023-05-21T10:14:47.804Z,24.61
2023-05-21T10:15:50.152Z,24.61
2023-05-21T10:16:47.868Z,24.60
2023-05-21T10:17:47.810Z,24.61
2023-05-21T10:18:47.790Z,24.61
2023-05-21T10:19:47.771Z,24.61
2023-05-21T10:20:47.789Z,24.61
2023-05-21T10:21:47.761Z,24.61
2023-05-21T10:22:47.757Z,24.61
2023-05-21T10:23:47.724Z,24.61
2023-05-21T10:24:47.735Z,24.61
2023-05-21T10:25:47.712Z,24.62
2023-05-21T10:26:47.723Z,24.61
2023-05-21T10:27:47.699Z,24.62
2023-05-21T10:28:47.702Z,24.62
2023-05-21T10:29:47.699Z,24.61
2023-05-21T10:30:47.679Z,24.62
2023-05-21T10:31:47.722Z,24.62
2023-05-21T10:32:47.891Z,24.62
2023-05-21T10:33:47.669Z,24.61
2023-05-21T10:34:47.646Z,24.61
2023-05-21T10:35:47.659Z,24.61
2023-05-21T10:36:47.630Z,24.61
2023-05-21T10:37:47.642Z,24.61
2023-05-21T10:38:47.633Z,24.61
2023-05-21T10:39:47.628Z,24.61
2023-05-21T10:40:47.629Z,24.61
2023-05-21T10:41:47.616Z,24.61
2023-05-21T10:42:47.593Z,24.61
2023-05-21T10:43:47.610Z,24.61
2023-05-21T10:44:47.577Z,24.61
2023-05-21T10:45:47.620Z,24.61
2023-05-21T10:46:47.586Z,24.61
2023-05-21T10:47:47.587Z,24.61
2023-05-21T10:48:47.580Z,24.61
2023-05-21T10:49:47.540Z,24.61
2023-05-21T10:50:47.539Z,24.61
2023-05-21T10:51:47.549Z,24.61
2023-05-21T10:52:47.515Z,24.61
2023-05-21T10:53:47.569Z,24.61
2023-05-21T10:54:47.622Z,24.61
2023-05-21T10:55:47.696Z,24.61
2023-05-21T10:56:47.751Z,24.61
2023-05-21T10:57:47.789Z,24.61
2023-05-21T10:58:47.843Z,24.61
2023-05-21T10:59:47.911Z,24.61
2023-05-21T11:00:47.956Z,24.60
2023-05-21T11:01:48.035Z,24.60
2023-05-21T11:02:48.161Z,24.61
2023-05-21T11:03:48.131Z,24.61
2023-05-21T11:04:48.168Z,24.61
2023-05-21T11:05:48.211Z,24.61
2023-05-21T11:06:48.276Z,24.61
2023-05-21T11:07:48.314Z,24.61
2023-05-21T11:08:48.384Z,24.61
2023-05-21T11:09:48.426Z,24.61
2023-05-21T11:10:48.484Z,24.61
2023-05-21T11:11:48.674Z,24.61
2023-05-21T11:12:48.593Z,24.61
2023-05-21T11:13:48.661Z,24.61
2023-05-21T11:14:48.683Z,24.61
2023-05-21T11:15:48.761Z,24.62
2023-05-21T11:16:48.842Z,24.61
2023-05-21T11:17:48.868Z,24.62
2023-05-21T11:18:48.958Z,24.61
2023-05-21T11:19:48.976Z,24.61
2023-05-21T11:20:49.001Z,24.61
2023-05-21T11:21:49.055Z,24.60
2023-05-21T11:22:49.087Z,24.61
2023-05-21T11:23:49.152Z,24.61
2023-05-21T11:24:50.707Z,24.61
2023-05-21T11:25:49.271Z,24.61
2023-05-21T11:26:49.326Z,24.61
2023-05-21T11:27:49.348Z,24.61
2023-05-21T11:28:49.404Z,24.61
2023-05-21T11:29:49.447Z,24.61
2023-05-21T11:30:49.508Z,24.61
2023-05-21T11:31:49.621Z,24.61
2023-05-21T11:32:49.637Z,24.61
2023-05-21T11:33:49.669Z,24.61
2023-05-21T11:34:49.759Z,24.61
2023-05-21T11:35:49.768Z,24.61
2023-05-21T11:36:49.842Z,24.60
2023-05-21T11:37:49.871Z,24.61
2023-05-21T11:38:49.943Z,24.61
2023-05-21T11:39:49.983Z,24.61
2023-05-21T11:40:50.049Z,24.61
2023-05-21T11:41:50.102Z,24.61
2023-05-21T11:42:50.155Z,24.61
2023-05-21T11:43:50.205Z,24.61
2023-05-21T11:44:50.249Z,24.60
2023-05-21T11:45:50.304Z,24.60
2023-05-21T11:46:50.371Z,24.61
2023-05-21T11:47:50.436Z,24.60
2023-05-21T11:48:50.498Z,24.60
2023-05-21T11:49:50.501Z,24.60
2023-05-21T11:50:50.572Z,24.60
2023-05-21T11:51:50.588Z,24.60
2023-05-21T11:52:50.647Z,24.59
2023-05-21T11:53:50.722Z,24.60
2023-05-21T11:54:50.971Z,24.60
2023-05-21T11:55:50.853Z,24.60
2023-05-21T11:56:50.886Z,24.61
2023-05-21T11:57:50.915Z,24.61
2023-05-21T11:58:50.992Z,24.61
2023-05-21T11:59:51.032Z,24.62
2023-05-21T12:00:51.109Z,24.61
2023-05-21T12:01:51.154Z,24.61
2023-05-21T12:02:51.310Z,24.61
2023-05-21T12:03:51.378Z,24.62
2023-05-21T12:04:51.326Z,24.61
2023-05-21T12:05:51.425Z,24.61
2023-05-21T12:06:51.405Z,24.61
2023-05-21T12:07:51.459Z,24.61
2023-05-21T12:08:51.533Z,24.61
2023-05-21T12:09:51.631Z,24.60
2023-05-21T12:10:51.644Z,24.60
2023-05-21T12:11:51.681Z,24.61
2023-05-21T12:12:56.568Z,24.61
2023-05-21T12:13:52.737Z,24.60
2023-05-21T12:14:51.726Z,24.59
2023-05-21T12:15:51.722Z,24.59
2023-05-21T12:16:51.793Z,24.59
2023-05-21T12:17:51.744Z,24.60
2023-05-21T12:18:51.714Z,24.60
2023-05-21T12:19:51.694Z,24.59
2023-05-21T12:20:51.712Z,24.59
2023-05-21T12:21:51.677Z,24.59
2023-05-21T12:22:51.689Z,24.59
2023-05-21T12:23:51.678Z,24.59
2023-05-21T12:24:51.748Z,24.59
2023-05-21T12:25:51.798Z,24.58
2023-05-21T12:26:51.876Z,24.58
2023-05-21T12:27:51.909Z,24.59
2023-05-21T12:28:51.985Z,24.58
2023-05-21T12:29:52.024Z,24.58
2023-05-21T12:30:52.111Z,24.58
2023-05-21T12:31:52.192Z,24.58
2023-05-21T12:32:52.248Z,24.58
2023-05-21T12:33:52.279Z,24.58
2023-05-21T12:34:52.331Z,24.58
2023-05-21T12:35:52.578Z,24.58
2023-05-21T12:36:52.468Z,24.58
2023-05-21T12:37:52.703Z,24.58
2023-05-21T12:38:52.562Z,24.57
2023-05-21T12:39:52.626Z,24.57
2023-05-21T12:40:52.682Z,24.57
2023-05-21T12:41:52.736Z,24.57
2023-05-21T12:42:52.786Z,24.57
2023-05-21T12:43:52.847Z,24.57
2023-05-21T12:44:52.901Z,24.56
2023-05-21T12:45:53.001Z,24.56
2023-05-21T12:46:53.011Z,24.57
2023-05-21T12:47:53.116Z,24.56
2023-05-21T12:48:53.126Z,24.56
2023-05-21T12:49:55.286Z,24.56
2023-05-21T12:50:53.292Z,24.56
2023-05-21T12:51:53.298Z,24.56
2023-05-21T12:52:53.370Z,24.56